ZSMUI FAGM-FXMU
Flight info
| Callsign | ZSMUI |
|---|---|
| Flight time | 0h 57m |
| Altitude | 18000 |
| Route | IXEKI |
| Aircraft | C414/L-SBDFGRY/S |
Departure
| Time | 2026-04-22 19:46 |
|---|---|
| Airport | Rand Airport (FAGM) |
Arrival
| Time | 2026-04-22 20:44 |
|---|---|
| Airport | Mejametalana Air Base (FXMU) |
| Time | Latitude | Longitude | Altitude | Speed | Heading |
|---|---|---|---|---|---|
| 2026-04-22 19:37 | -26.24046 | 28.15223 | 5489 ft | 0 kts | 195° |
| 2026-04-22 19:41 | -26.24055 | 28.15215 | 5490 ft | 4 kts | 229° |
| 2026-04-22 19:42 | -26.24068 | 28.15190 | 5489 ft | 3 kts | 245° |
| 2026-04-22 19:42 | -26.24072 | 28.15179 | 5489 ft | 0 kts | 249° |
| 2026-04-22 19:42 | -26.24074 | 28.15162 | 5489 ft | 7 kts | 270° |
| 2026-04-22 19:42 | -26.24120 | 28.15145 | 5489 ft | 12 kts | 153° |
| 2026-04-22 19:43 | -26.24312 | 28.15246 | 5491 ft | 19 kts | 159° |
| 2026-04-22 19:43 | -26.24443 | 28.15308 | 5491 ft | 23 kts | 156° |
| 2026-04-22 19:43 | -26.24598 | 28.15380 | 5493 ft | 25 kts | 157° |
| 2026-04-22 19:44 | -26.24708 | 28.15425 | 5493 ft | 10 kts | 201° |
| 2026-04-22 19:44 | -26.24740 | 28.15384 | 5494 ft | 5 kts | 238° |
| 2026-04-22 19:44 | -26.24741 | 28.15347 | 5494 ft | 6 kts | 327° |
| 2026-04-22 19:44 | -26.24687 | 28.15320 | 5494 ft | 18 kts | 338° |
| 2026-04-22 19:45 | -26.24419 | 28.15196 | 5493 ft | 63 kts | 336° |
| 2026-04-22 19:45 | -26.23909 | 28.14955 | 5494 ft | 95 kts | 338° |
| 2026-04-22 19:45 | -26.23261 | 28.14626 | 5590 ft | 107 kts | 335° |
| 2026-04-22 19:45 | -26.22592 | 28.14162 | 5728 ft | 120 kts | 315° |
| 2026-04-22 19:46 | -26.22229 | 28.13332 | 5958 ft | 123 kts | 277° |
| 2026-04-22 19:46 | -26.22360 | 28.12379 | 6151 ft | 130 kts | 244° |
| 2026-04-22 19:46 | -26.22953 | 28.11581 | 6262 ft | 140 kts | 212° |
| 2026-04-22 19:46 | -26.23876 | 28.11210 | 6424 ft | 144 kts | 184° |
| 2026-04-22 19:47 | -26.24874 | 28.11305 | 6654 ft | 143 kts | 162° |
| 2026-04-22 19:47 | -26.25723 | 28.11822 | 6937 ft | 136 kts | 143° |
| 2026-04-22 19:47 | -26.26483 | 28.12419 | 7210 ft | 132 kts | 144° |
| 2026-04-22 19:47 | -26.27223 | 28.12988 | 7435 ft | 131 kts | 144° |
| 2026-04-22 19:48 | -26.27973 | 28.13561 | 7665 ft | 130 kts | 147° |
| 2026-04-22 19:48 | -26.28813 | 28.13958 | 7850 ft | 135 kts | 166° |
| 2026-04-22 19:48 | -26.29759 | 28.13954 | 8026 ft | 139 kts | 187° |
| 2026-04-22 19:48 | -26.30730 | 28.13785 | 8198 ft | 143 kts | 188° |
| 2026-04-22 19:49 | -26.31722 | 28.13591 | 8387 ft | 147 kts | 189° |
| 2026-04-22 19:49 | -26.32736 | 28.13384 | 8558 ft | 150 kts | 190° |
| 2026-04-22 19:49 | -26.33772 | 28.13172 | 8748 ft | 153 kts | 190° |
| 2026-04-22 19:49 | -26.34809 | 28.12958 | 8926 ft | 155 kts | 190° |
| 2026-04-22 19:50 | -26.35878 | 28.12739 | 9103 ft | 157 kts | 190° |
| 2026-04-22 19:50 | -26.36962 | 28.12516 | 9284 ft | 159 kts | 190° |
| 2026-04-22 19:50 | -26.38060 | 28.12291 | 9466 ft | 161 kts | 190° |
| 2026-04-22 19:50 | -26.39169 | 28.12063 | 9644 ft | 163 kts | 190° |
| 2026-04-22 19:51 | -26.40291 | 28.11833 | 9826 ft | 165 kts | 190° |
| 2026-04-22 19:51 | -26.41423 | 28.11600 | 10007 ft | 166 kts | 190° |
| 2026-04-22 19:51 | -26.42562 | 28.11366 | 10189 ft | 167 kts | 191° |
| 2026-04-22 19:51 | -26.43694 | 28.11134 | 10355 ft | 168 kts | 191° |
| 2026-04-22 19:52 | -26.44846 | 28.10897 | 10519 ft | 169 kts | 191° |
| 2026-04-22 19:52 | -26.46006 | 28.10659 | 10683 ft | 170 kts | 191° |
| 2026-04-22 19:52 | -26.47171 | 28.10419 | 10850 ft | 171 kts | 191° |
| 2026-04-22 19:52 | -26.48340 | 28.10178 | 11018 ft | 171 kts | 191° |
| 2026-04-22 19:53 | -26.49513 | 28.09938 | 11184 ft | 172 kts | 191° |
| 2026-04-22 19:53 | -26.50688 | 28.09696 | 11352 ft | 172 kts | 191° |
| 2026-04-22 19:53 | -26.51865 | 28.09454 | 11524 ft | 172 kts | 192° |
| 2026-04-22 19:53 | -26.53046 | 28.09211 | 11693 ft | 173 kts | 192° |
| 2026-04-22 19:54 | -26.54212 | 28.08971 | 11859 ft | 173 kts | 192° |
| 2026-04-22 19:54 | -26.55398 | 28.08727 | 12032 ft | 173 kts | 192° |
| 2026-04-22 19:54 | -26.56584 | 28.08483 | 12205 ft | 173 kts | 192° |
| 2026-04-22 19:54 | -26.57771 | 28.08238 | 12377 ft | 174 kts | 192° |
| 2026-04-22 19:55 | -26.58960 | 28.07993 | 12550 ft | 174 kts | 192° |
| 2026-04-22 19:55 | -26.60150 | 28.07749 | 12725 ft | 174 kts | 193° |
| 2026-04-22 19:55 | -26.61342 | 28.07503 | 12900 ft | 174 kts | 193° |
| 2026-04-22 19:55 | -26.62535 | 28.07257 | 13075 ft | 174 kts | 193° |
| 2026-04-22 19:56 | -26.63712 | 28.07014 | 13251 ft | 174 kts | 193° |
| 2026-04-22 19:56 | -26.64907 | 28.06768 | 13428 ft | 175 kts | 193° |
| 2026-04-22 19:56 | -26.66102 | 28.06522 | 13607 ft | 175 kts | 193° |
| 2026-04-22 19:56 | -26.67297 | 28.06275 | 13789 ft | 175 kts | 193° |
| 2026-04-22 19:57 | -26.68495 | 28.06028 | 13969 ft | 175 kts | 193° |
| 2026-04-22 19:57 | -26.69692 | 28.05781 | 14144 ft | 175 kts | 193° |
| 2026-04-22 19:57 | -26.70890 | 28.05534 | 14310 ft | 175 kts | 194° |
| 2026-04-22 19:57 | -26.72089 | 28.05286 | 14471 ft | 175 kts | 194° |
| 2026-04-22 19:58 | -26.73273 | 28.05042 | 14628 ft | 175 kts | 194° |
| 2026-04-22 19:58 | -26.74473 | 28.04794 | 14790 ft | 176 kts | 194° |
| 2026-04-22 19:58 | -26.75677 | 28.04545 | 14954 ft | 176 kts | 194° |
| 2026-04-22 19:58 | -26.76882 | 28.04296 | 15118 ft | 176 kts | 194° |
| 2026-04-22 19:59 | -26.78089 | 28.04047 | 15280 ft | 177 kts | 194° |
| 2026-04-22 20:00 | -26.85330 | 28.02549 | 16280 ft | 177 kts | 195° |
| 2026-04-22 20:00 | -26.86543 | 28.02298 | 16452 ft | 177 kts | 196° |
| 2026-04-22 20:01 | -26.87760 | 28.02047 | 16626 ft | 178 kts | 196° |
| 2026-04-22 20:01 | -26.88975 | 28.01795 | 16793 ft | 178 kts | 196° |
| 2026-04-22 20:01 | -26.90194 | 28.01543 | 16969 ft | 178 kts | 196° |
| 2026-04-22 20:01 | -26.91414 | 28.01290 | 17139 ft | 178 kts | 196° |
| 2026-04-22 20:02 | -26.92636 | 28.01037 | 17313 ft | 179 kts | 197° |
| 2026-04-22 20:02 | -26.93859 | 28.00783 | 17492 ft | 179 kts | 197° |
| 2026-04-22 20:02 | -26.95068 | 28.00533 | 17666 ft | 179 kts | 197° |
| 2026-04-22 20:02 | -26.96293 | 28.00279 | 17852 ft | 179 kts | 197° |
| 2026-04-22 20:03 | -26.97522 | 28.00024 | 18029 ft | 180 kts | 197° |
| 2026-04-22 20:03 | -26.98753 | 27.99769 | 18213 ft | 180 kts | 197° |
| 2026-04-22 20:03 | -26.99996 | 27.99509 | 18302 ft | 186 kts | 197° |
| 2026-04-22 20:03 | -27.01288 | 27.99238 | 18312 ft | 191 kts | 197° |
| 2026-04-22 20:04 | -27.02606 | 27.98966 | 18317 ft | 194 kts | 197° |
| 2026-04-22 20:04 | -27.03944 | 27.98689 | 18315 ft | 197 kts | 197° |
| 2026-04-22 20:04 | -27.05300 | 27.98407 | 18317 ft | 199 kts | 197° |
| 2026-04-22 20:04 | -27.06651 | 27.98127 | 18320 ft | 201 kts | 197° |
| 2026-04-22 20:05 | -27.08034 | 27.97840 | 18317 ft | 203 kts | 197° |
| 2026-04-22 20:05 | -27.09424 | 27.97551 | 18317 ft | 204 kts | 197° |
| 2026-04-22 20:05 | -27.10821 | 27.97261 | 18316 ft | 205 kts | 197° |
| 2026-04-22 20:05 | -27.12222 | 27.96969 | 18319 ft | 205 kts | 197° |
| 2026-04-22 20:06 | -27.13628 | 27.96677 | 18315 ft | 206 kts | 197° |
| 2026-04-22 20:06 | -27.15038 | 27.96383 | 18316 ft | 206 kts | 197° |
| 2026-04-22 20:06 | -27.16432 | 27.96094 | 18315 ft | 207 kts | 197° |
| 2026-04-22 20:06 | -27.17846 | 27.95799 | 18314 ft | 207 kts | 197° |
| 2026-04-22 20:07 | -27.19263 | 27.95504 | 18313 ft | 207 kts | 197° |
| 2026-04-22 20:07 | -27.20681 | 27.95209 | 18312 ft | 208 kts | 197° |
| 2026-04-22 20:07 | -27.22103 | 27.94913 | 18313 ft | 208 kts | 197° |
| 2026-04-22 20:07 | -27.23527 | 27.94616 | 18310 ft | 208 kts | 197° |
| 2026-04-22 20:08 | -27.24952 | 27.94319 | 18309 ft | 208 kts | 197° |
| 2026-04-22 20:08 | -27.26377 | 27.94022 | 18309 ft | 208 kts | 197° |
| 2026-04-22 20:08 | -27.27801 | 27.93725 | 18312 ft | 208 kts | 197° |
| 2026-04-22 20:08 | -27.29209 | 27.93432 | 18316 ft | 209 kts | 197° |
| 2026-04-22 20:09 | -27.30638 | 27.93133 | 18312 ft | 209 kts | 197° |
| 2026-04-22 20:09 | -27.32069 | 27.92835 | 18314 ft | 209 kts | 197° |
| 2026-04-22 20:09 | -27.33499 | 27.92536 | 18308 ft | 209 kts | 197° |
| 2026-04-22 20:09 | -27.34931 | 27.92237 | 18316 ft | 209 kts | 197° |
| 2026-04-22 20:10 | -27.36363 | 27.91938 | 18316 ft | 209 kts | 197° |
| 2026-04-22 20:10 | -27.37795 | 27.91639 | 18317 ft | 209 kts | 197° |
| 2026-04-22 20:10 | -27.39227 | 27.91340 | 18315 ft | 209 kts | 197° |
| 2026-04-22 20:10 | -27.40658 | 27.91041 | 18316 ft | 209 kts | 197° |
| 2026-04-22 20:11 | -27.42069 | 27.90746 | 18317 ft | 209 kts | 197° |
| 2026-04-22 20:11 | -27.43496 | 27.90448 | 18318 ft | 208 kts | 197° |
| 2026-04-22 20:11 | -27.44922 | 27.90149 | 18317 ft | 209 kts | 197° |
| 2026-04-22 20:11 | -27.46350 | 27.89851 | 18314 ft | 208 kts | 197° |
| 2026-04-22 20:12 | -27.47775 | 27.89552 | 18316 ft | 208 kts | 197° |
| 2026-04-22 20:12 | -27.49202 | 27.89253 | 18315 ft | 209 kts | 197° |
| 2026-04-22 20:12 | -27.50147 | 27.89056 | 18313 ft | 209 kts | 198° |
| 2026-04-22 20:12 | -27.52059 | 27.88655 | 18312 ft | 209 kts | 198° |
| 2026-04-22 20:13 | -27.53486 | 27.88357 | 18314 ft | 209 kts | 198° |
| 2026-04-22 20:13 | -27.54893 | 27.88061 | 18316 ft | 209 kts | 198° |
| 2026-04-22 20:13 | -27.56322 | 27.87761 | 18313 ft | 209 kts | 198° |
| 2026-04-22 20:13 | -27.57752 | 27.87462 | 18317 ft | 209 kts | 198° |
| 2026-04-22 20:14 | -27.59181 | 27.87162 | 18318 ft | 209 kts | 198° |
| 2026-04-22 20:14 | -27.60612 | 27.86862 | 18316 ft | 209 kts | 198° |
| 2026-04-22 20:14 | -27.62040 | 27.86563 | 18314 ft | 208 kts | 198° |
| 2026-04-22 20:14 | -27.63463 | 27.86264 | 18316 ft | 208 kts | 198° |
| 2026-04-22 20:15 | -27.64885 | 27.85965 | 18319 ft | 208 kts | 198° |
| 2026-04-22 20:15 | -27.66290 | 27.85670 | 18316 ft | 209 kts | 198° |
| 2026-04-22 20:15 | -27.67718 | 27.85370 | 18316 ft | 208 kts | 198° |
| 2026-04-22 20:15 | -27.69144 | 27.85071 | 18315 ft | 209 kts | 198° |
| 2026-04-22 20:16 | -27.70571 | 27.84770 | 18317 ft | 209 kts | 198° |
| 2026-04-22 20:16 | -27.72000 | 27.84470 | 18315 ft | 209 kts | 198° |
| 2026-04-22 20:16 | -27.73430 | 27.84170 | 18316 ft | 209 kts | 198° |
| 2026-04-22 20:16 | -27.74859 | 27.83869 | 18314 ft | 209 kts | 198° |
| 2026-04-22 20:17 | -27.76288 | 27.83568 | 18313 ft | 209 kts | 198° |
| 2026-04-22 20:17 | -27.77696 | 27.83272 | 18314 ft | 209 kts | 198° |
| 2026-04-22 20:17 | -27.79125 | 27.82972 | 18318 ft | 209 kts | 198° |
| 2026-04-22 20:17 | -27.80552 | 27.82671 | 18313 ft | 209 kts | 198° |
| 2026-04-22 20:18 | -27.81978 | 27.82370 | 18313 ft | 208 kts | 198° |
| 2026-04-22 20:18 | -27.83402 | 27.82070 | 18314 ft | 208 kts | 198° |
| 2026-04-22 20:18 | -27.84828 | 27.81770 | 18312 ft | 208 kts | 198° |
| 2026-04-22 20:18 | -27.86253 | 27.81470 | 18312 ft | 208 kts | 198° |
| 2026-04-22 20:19 | -27.87679 | 27.81169 | 18310 ft | 208 kts | 198° |
| 2026-04-22 20:19 | -27.89083 | 27.80873 | 18312 ft | 208 kts | 198° |
| 2026-04-22 20:19 | -27.90506 | 27.80572 | 18312 ft | 208 kts | 198° |
| 2026-04-22 20:19 | -27.91932 | 27.80272 | 18311 ft | 208 kts | 198° |
| 2026-04-22 20:20 | -27.93357 | 27.79971 | 18311 ft | 208 kts | 198° |
| 2026-04-22 20:20 | -27.94784 | 27.79670 | 18309 ft | 208 kts | 198° |
| 2026-04-22 20:20 | -27.96208 | 27.79369 | 18310 ft | 208 kts | 198° |
| 2026-04-22 20:20 | -27.97631 | 27.79068 | 18308 ft | 208 kts | 198° |
| 2026-04-22 20:21 | -27.99057 | 27.78767 | 18309 ft | 208 kts | 198° |
| 2026-04-22 20:21 | -28.00460 | 27.78470 | 18308 ft | 208 kts | 198° |
| 2026-04-22 20:21 | -28.01880 | 27.78171 | 18304 ft | 207 kts | 198° |
| 2026-04-22 20:21 | -28.03299 | 27.77870 | 18309 ft | 207 kts | 198° |
| 2026-04-22 20:22 | -28.04717 | 27.77570 | 18304 ft | 208 kts | 198° |
| 2026-04-22 20:22 | -28.06140 | 27.77269 | 18307 ft | 208 kts | 198° |
| 2026-04-22 20:22 | -28.07560 | 27.76969 | 18310 ft | 208 kts | 198° |
| 2026-04-22 20:22 | -28.08982 | 27.76668 | 18302 ft | 208 kts | 198° |
| 2026-04-22 20:23 | -28.10386 | 27.76371 | 18304 ft | 208 kts | 198° |
| 2026-04-22 20:23 | -28.11807 | 27.76069 | 18294 ft | 208 kts | 198° |
| 2026-04-22 20:23 | -28.13229 | 27.75769 | 18297 ft | 207 kts | 198° |
| 2026-04-22 20:23 | -28.14643 | 27.75469 | 18303 ft | 206 kts | 198° |
| 2026-04-22 20:24 | -28.16052 | 27.75170 | 18299 ft | 206 kts | 198° |
| 2026-04-22 20:24 | -28.17462 | 27.74871 | 18297 ft | 206 kts | 198° |
| 2026-04-22 20:24 | -28.18870 | 27.74572 | 18295 ft | 206 kts | 198° |
| 2026-04-22 20:24 | -28.20278 | 27.74274 | 18297 ft | 206 kts | 198° |
| 2026-04-22 20:25 | -28.21687 | 27.73975 | 18295 ft | 206 kts | 198° |
| 2026-04-22 20:25 | -28.23077 | 27.73680 | 18293 ft | 206 kts | 198° |
| 2026-04-22 20:25 | -28.24486 | 27.73380 | 18293 ft | 206 kts | 198° |
| 2026-04-22 20:25 | -28.25896 | 27.73081 | 18288 ft | 206 kts | 198° |
| 2026-04-22 20:26 | -28.27306 | 27.72781 | 18285 ft | 206 kts | 198° |
| 2026-04-22 20:26 | -28.28716 | 27.72482 | 18286 ft | 206 kts | 198° |
| 2026-04-22 20:26 | -28.30126 | 27.72182 | 18287 ft | 206 kts | 198° |
| 2026-04-22 20:26 | -28.31535 | 27.71883 | 18285 ft | 206 kts | 198° |
| 2026-04-22 20:27 | -28.32944 | 27.71583 | 18285 ft | 206 kts | 198° |
| 2026-04-22 20:27 | -28.34335 | 27.71287 | 18279 ft | 206 kts | 198° |
| 2026-04-22 20:27 | -28.35746 | 27.70987 | 18279 ft | 206 kts | 198° |
| 2026-04-22 20:27 | -28.37157 | 27.70687 | 18278 ft | 206 kts | 198° |
| 2026-04-22 20:28 | -28.38565 | 27.70387 | 18278 ft | 206 kts | 198° |
| 2026-04-22 20:28 | -28.39974 | 27.70087 | 18283 ft | 206 kts | 198° |
| 2026-04-22 20:28 | -28.41383 | 27.69787 | 18278 ft | 206 kts | 198° |
| 2026-04-22 20:28 | -28.42792 | 27.69486 | 18277 ft | 206 kts | 198° |
| 2026-04-22 20:29 | -28.44204 | 27.69185 | 18275 ft | 207 kts | 197° |
| 2026-04-22 20:29 | -28.45597 | 27.68888 | 18267 ft | 206 kts | 198° |
| 2026-04-22 20:29 | -28.47007 | 27.68588 | 18266 ft | 206 kts | 197° |
| 2026-04-22 20:29 | -28.48416 | 27.68288 | 18265 ft | 206 kts | 197° |
| 2026-04-22 20:30 | -28.49827 | 27.67986 | 18261 ft | 206 kts | 197° |
| 2026-04-22 20:30 | -28.51237 | 27.67685 | 18263 ft | 206 kts | 197° |
| 2026-04-22 20:30 | -28.52644 | 27.67381 | 18261 ft | 206 kts | 198° |
| 2026-04-22 20:30 | -28.54048 | 27.67073 | 18257 ft | 206 kts | 198° |
| 2026-04-22 20:31 | -28.55455 | 27.66765 | 18265 ft | 206 kts | 198° |
| 2026-04-22 20:31 | -28.56862 | 27.66458 | 18253 ft | 206 kts | 198° |
| 2026-04-22 20:31 | -28.58250 | 27.66154 | 18253 ft | 206 kts | 197° |
| 2026-04-22 20:31 | -28.59687 | 27.65837 | 18032 ft | 216 kts | 197° |
| 2026-04-22 20:32 | -28.61195 | 27.65505 | 17758 ft | 225 kts | 197° |
| 2026-04-22 20:32 | -28.62756 | 27.65165 | 17492 ft | 231 kts | 196° |
| 2026-04-22 20:32 | -28.64352 | 27.64819 | 17223 ft | 235 kts | 196° |
| 2026-04-22 20:32 | -28.65969 | 27.64466 | 16942 ft | 238 kts | 196° |
| 2026-04-22 20:33 | -28.67604 | 27.64108 | 16652 ft | 240 kts | 196° |
| 2026-04-22 20:33 | -28.69229 | 27.63752 | 16354 ft | 242 kts | 196° |
| 2026-04-22 20:33 | -28.70889 | 27.63389 | 16064 ft | 243 kts | 195° |
| 2026-04-22 20:33 | -28.72555 | 27.63024 | 15775 ft | 244 kts | 195° |
| 2026-04-22 20:34 | -28.74222 | 27.62660 | 15486 ft | 244 kts | 195° |
| 2026-04-22 20:34 | -28.75891 | 27.62294 | 15198 ft | 244 kts | 195° |
| 2026-04-22 20:34 | -28.77560 | 27.61928 | 14918 ft | 244 kts | 195° |
| 2026-04-22 20:34 | -28.79226 | 27.61563 | 14637 ft | 244 kts | 195° |
| 2026-04-22 20:35 | -28.80891 | 27.61198 | 14355 ft | 243 kts | 195° |
| 2026-04-22 20:35 | -28.82530 | 27.60838 | 14086 ft | 243 kts | 195° |
| 2026-04-22 20:35 | -28.84189 | 27.60474 | 13778 ft | 243 kts | 195° |
| 2026-04-22 20:35 | -28.85847 | 27.60110 | 13470 ft | 242 kts | 195° |
| 2026-04-22 20:36 | -28.87499 | 27.59747 | 13159 ft | 242 kts | 194° |
| 2026-04-22 20:36 | -28.89153 | 27.59384 | 12858 ft | 242 kts | 194° |
| 2026-04-22 20:36 | -28.90806 | 27.59021 | 12554 ft | 242 kts | 194° |
| 2026-04-22 20:36 | -28.92457 | 27.58658 | 12256 ft | 242 kts | 193° |
| 2026-04-22 20:37 | -28.94107 | 27.58295 | 11964 ft | 241 kts | 193° |
| 2026-04-22 20:37 | -28.95756 | 27.57932 | 11673 ft | 242 kts | 193° |
| 2026-04-22 20:37 | -28.97383 | 27.57574 | 11381 ft | 241 kts | 193° |
| 2026-04-22 20:37 | -28.99032 | 27.57211 | 11096 ft | 241 kts | 192° |
| 2026-04-22 20:38 | -29.00684 | 27.56848 | 10809 ft | 242 kts | 192° |
| 2026-04-22 20:38 | -29.02334 | 27.56484 | 10529 ft | 242 kts | 192° |
| 2026-04-22 20:38 | -29.03984 | 27.56120 | 10246 ft | 242 kts | 191° |
| 2026-04-22 20:38 | -29.05634 | 27.55757 | 9954 ft | 241 kts | 191° |
| 2026-04-22 20:39 | -29.07282 | 27.55393 | 9647 ft | 241 kts | 191° |
| 2026-04-22 20:39 | -29.08925 | 27.55031 | 9340 ft | 240 kts | 191° |
| 2026-04-22 20:39 | -29.10539 | 27.54675 | 9043 ft | 239 kts | 191° |
| 2026-04-22 20:39 | -29.12167 | 27.54315 | 8741 ft | 238 kts | 191° |
| 2026-04-22 20:40 | -29.13787 | 27.53958 | 8445 ft | 235 kts | 191° |
| 2026-04-22 20:40 | -29.15344 | 27.53614 | 8148 ft | 221 kts | 191° |
| 2026-04-22 20:40 | -29.16825 | 27.53287 | 7851 ft | 213 kts | 190° |
| 2026-04-22 20:40 | -29.18254 | 27.52971 | 7551 ft | 206 kts | 190° |
| 2026-04-22 20:41 | -29.19648 | 27.52664 | 7256 ft | 202 kts | 190° |
| 2026-04-22 20:41 | -29.21007 | 27.52364 | 6964 ft | 193 kts | 189° |
| 2026-04-22 20:41 | -29.22289 | 27.52080 | 6662 ft | 183 kts | 189° |
| 2026-04-22 20:41 | -29.23501 | 27.51894 | 6406 ft | 173 kts | 181° |
| 2026-04-22 20:42 | -29.24681 | 27.51876 | 6150 ft | 165 kts | 179° |
| 2026-04-22 20:42 | -29.25763 | 27.51870 | 5901 ft | 146 kts | 180° |
| 2026-04-22 20:42 | -29.26700 | 27.51719 | 5687 ft | 126 kts | 193° |
| 2026-04-22 20:42 | -29.27523 | 27.51465 | 5519 ft | 121 kts | 198° |
| 2026-04-22 20:43 | -29.28304 | 27.51151 | 5378 ft | 117 kts | 200° |
| 2026-04-22 20:43 | -29.29054 | 27.50822 | 5251 ft | 114 kts | 200° |
| 2026-04-22 20:43 | -29.29776 | 27.50510 | 5126 ft | 110 kts | 201° |
| 2026-04-22 20:43 | -29.30396 | 27.50236 | 5117 ft | 84 kts | 201° |
| 2026-04-22 20:44 | -29.30729 | 27.50089 | 5114 ft | 27 kts | 201° |
| 2026-04-22 20:44 | -29.30824 | 27.50018 | 5112 ft | 10 kts | 310° |
| 2026-04-22 20:44 | -29.30784 | 27.49948 | 5110 ft | 15 kts | 290° |
| 2026-04-22 20:44 | -29.30771 | 27.49928 | 5108 ft | 0 kts | 323° |